createdAt,value
2023-01-29T00:00:15.845Z,87.60
2023-01-29T00:02:44.761Z,87.70
2023-01-29T00:05:26.921Z,87.60
2023-01-29T00:07:56.682Z,87.80
2023-01-29T00:10:26.182Z,87.60
2023-01-29T00:12:54.613Z,87.50
2023-01-29T00:15:23.433Z,87.60
2023-01-29T00:17:51.479Z,87.50
2023-01-29T00:20:21.824Z,87.50
2023-01-29T00:22:49.799Z,87.60
2023-01-29T00:25:17.992Z,87.50
2023-01-29T00:27:46.135Z,87.70
2023-01-29T00:30:14.704Z,87.90
2023-01-29T00:32:43.528Z,87.90
2023-01-29T00:35:12.297Z,87.80
2023-01-29T00:37:40.400Z,87.80
2023-01-29T00:40:09.562Z,87.70
2023-01-29T00:42:56.219Z,87.90
2023-01-29T00:45:24.034Z,87.90
2023-01-29T00:47:52.259Z,87.90
2023-01-29T00:50:20.096Z,87.90
2023-01-29T00:52:49.709Z,88.00
2023-01-29T00:55:18.663Z,88.10
2023-01-29T00:57:47.427Z,88.10
2023-01-29T01:00:18.650Z,87.80
2023-01-29T01:03:05.774Z,87.80
2023-01-29T01:05:35.335Z,87.80
2023-01-29T01:08:04.422Z,87.90
2023-01-29T01:10:34.544Z,87.80
2023-01-29T01:13:07.352Z,87.70
2023-01-29T01:15:37.996Z,87.60
2023-01-29T01:18:05.998Z,87.50
2023-01-29T01:20:35.921Z,87.40
2023-01-29T01:23:04.656Z,87.60
2023-01-29T01:25:32.957Z,87.40
2023-01-29T01:28:01.488Z,87.20
2023-01-29T01:30:29.360Z,87.10
2023-01-29T01:32:57.858Z,87.20
2023-01-29T01:35:25.652Z,87.20
2023-01-29T01:37:53.926Z,87.00
2023-01-29T01:40:23.675Z,87.00
2023-01-29T01:42:57.230Z,86.90
2023-01-29T01:45:31.873Z,86.90
2023-01-29T01:48:13.483Z,86.80
2023-01-29T01:50:50.982Z,86.90
2023-01-29T01:53:24.186Z,86.60
2023-01-29T01:55:59.179Z,86.70
2023-01-29T01:58:36.264Z,86.50
2023-01-29T02:01:07.222Z,86.30
2023-01-29T02:04:08.556Z,86.20
2023-01-29T02:06:58.397Z,86.10
2023-01-29T02:09:36.312Z,86.30
2023-01-29T02:12:07.435Z,86.30
2023-01-29T02:14:40.931Z,86.00
2023-01-29T02:17:14.975Z,86.00
2023-01-29T02:20:08.574Z,86.20
2023-01-29T02:22:55.132Z,86.10
2023-01-29T02:25:57.054Z,86.10
2023-01-29T02:28:27.851Z,86.00
2023-01-29T02:31:01.563Z,86.30
2023-01-29T02:34:06.083Z,86.40
2023-01-29T02:37:04.275Z,86.10
2023-01-29T02:39:57.260Z,86.10
2023-01-29T02:42:57.426Z,85.80
2023-01-29T02:45:48.060Z,85.70
2023-01-29T02:48:21.557Z,86.10
2023-01-29T02:50:59.106Z,86.30
2023-01-29T02:53:34.464Z,86.20
2023-01-29T02:56:12.094Z,86.30
2023-01-29T02:58:46.283Z,86.50
2023-01-29T03:01:51.685Z,86.40
2023-01-29T03:04:28.290Z,85.90
2023-01-29T03:07:07.602Z,85.50
2023-01-29T03:09:42.401Z,85.40
2023-01-29T03:12:34.185Z,85.10
2023-01-29T03:15:14.057Z,85.30
2023-01-29T03:17:57.409Z,85.00
2023-01-29T03:20:48.056Z,84.70
2023-01-29T03:23:38.091Z,84.90
2023-01-29T03:26:27.802Z,84.90
2023-01-29T03:29:19.862Z,85.20
2023-01-29T03:32:05.454Z,84.90
2023-01-29T03:34:45.050Z,85.10
2023-01-29T03:37:42.428Z,85.50
2023-01-29T03:40:14.814Z,85.40
2023-01-29T03:43:23.396Z,85.60
2023-01-29T03:46:08.791Z,85.30
2023-01-29T03:48:46.576Z,84.70
2023-01-29T03:51:33.407Z,84.60
2023-01-29T03:54:29.136Z,85.00
2023-01-29T03:57:05.496Z,85.00
2023-01-29T03:59:58.509Z,85.50
2023-01-29T04:02:52.483Z,85.50
2023-01-29T04:05:23.360Z,85.70
2023-01-29T04:07:56.670Z,85.50
2023-01-29T04:10:27.473Z,85.70
2023-01-29T04:13:00.268Z,85.40
2023-01-29T04:15:31.848Z,85.30
2023-01-29T04:18:00.717Z,85.40
2023-01-29T04:20:28.944Z,84.90
2023-01-29T04:22:56.634Z,85.10
2023-01-29T04:25:26.840Z,84.80
2023-01-29T04:28:23.620Z,84.90
2023-01-29T04:30:58.536Z,85.30
2023-01-29T04:33:40.652Z,85.50
2023-01-29T04:36:26.212Z,84.90
2023-01-29T04:39:05.653Z,84.80
2023-01-29T04:41:49.240Z,84.90
2023-01-29T04:44:37.540Z,85.20
2023-01-29T04:47:35.141Z,84.90
2023-01-29T04:50:05.870Z,84.60
2023-01-29T04:52:56.576Z,84.50
2023-01-29T04:55:36.179Z,84.40
2023-01-29T04:58:33.301Z,84.50
2023-01-29T05:01:05.240Z,84.30
2023-01-29T05:03:34.158Z,84.90
2023-01-29T05:06:05.069Z,85.10
2023-01-29T05:08:33.867Z,85.20
2023-01-29T05:11:01.968Z,84.80
2023-01-29T05:13:32.412Z,84.80
2023-01-29T05:16:05.875Z,84.70
2023-01-29T05:18:34.601Z,84.50
2023-01-29T05:21:06.421Z,84.40
2023-01-29T05:23:33.964Z,84.40
2023-01-29T05:26:01.417Z,84.30
2023-01-29T05:28:29.569Z,84.50
2023-01-29T05:30:57.518Z,84.30
2023-01-29T05:33:27.995Z,84.20
2023-01-29T05:35:56.568Z,84.10
2023-01-29T05:38:24.396Z,84.60
2023-01-29T05:40:52.036Z,85.00
2023-01-29T05:43:20.933Z,84.90
2023-01-29T05:45:57.044Z,84.30
2023-01-29T05:48:25.585Z,84.40
2023-01-29T05:50:53.522Z,84.30
2023-01-29T05:53:21.384Z,83.90
2023-01-29T05:55:49.658Z,84.10
2023-01-29T05:58:19.691Z,84.20
2023-01-29T06:00:47.168Z,83.70
2023-01-29T06:03:14.971Z,83.80
2023-01-29T06:05:42.477Z,83.80
2023-01-29T06:08:10.640Z,84.10
2023-01-29T06:10:38.145Z,84.60
2023-01-29T06:13:05.569Z,84.50
2023-01-29T06:15:32.836Z,83.80
2023-01-29T06:18:00.556Z,83.90
2023-01-29T06:20:27.893Z,84.00
2023-01-29T06:22:56.016Z,84.40
2023-01-29T06:25:23.416Z,84.70
2023-01-29T06:27:51.424Z,84.80
2023-01-29T06:30:19.077Z,84.50
2023-01-29T06:32:47.241Z,84.30
2023-01-29T06:35:14.591Z,84.40
2023-01-29T06:37:46.067Z,84.40
2023-01-29T06:40:20.696Z,84.40
2023-01-29T06:42:48.341Z,84.50
2023-01-29T06:45:15.699Z,84.40
2023-01-29T06:47:43.924Z,84.40
2023-01-29T06:50:12.276Z,84.60
2023-01-29T06:52:40.231Z,84.70
2023-01-29T06:55:08.296Z,84.50
2023-01-29T06:57:38.676Z,84.90
2023-01-29T07:00:06.642Z,84.70
2023-01-29T07:02:34.368Z,85.10
2023-01-29T07:05:01.851Z,84.70
2023-01-29T07:07:29.616Z,84.90
2023-01-29T07:09:57.260Z,85.10
2023-01-29T07:12:24.719Z,85.00
2023-01-29T07:14:52.051Z,85.10
2023-01-29T07:17:20.897Z,85.10
2023-01-29T07:19:48.480Z,85.20
2023-01-29T07:22:16.840Z,85.10
2023-01-29T07:24:44.354Z,85.20
2023-01-29T07:27:11.903Z,85.20
2023-01-29T07:29:39.917Z,84.70
2023-01-29T07:32:07.938Z,84.80
2023-01-29T07:34:35.928Z,85.30
2023-01-29T07:37:03.770Z,85.40
2023-01-29T07:39:31.485Z,85.00
2023-01-29T07:41:58.883Z,84.60
2023-01-29T07:44:26.320Z,84.90
2023-01-29T07:46:53.870Z,84.80
2023-01-29T07:49:21.260Z,85.00
2023-01-29T07:51:48.711Z,85.00
2023-01-29T07:54:16.410Z,84.70
2023-01-29T07:56:43.880Z,84.80
2023-01-29T07:59:11.770Z,85.20
2023-01-29T08:01:39.160Z,85.40
2023-01-29T08:04:06.667Z,85.50
2023-01-29T08:06:35.401Z,85.30
2023-01-29T08:09:03.824Z,85.10
2023-01-29T08:11:31.038Z,85.30
2023-01-29T08:13:58.842Z,85.00
2023-01-29T08:16:28.583Z,85.00
2023-01-29T08:18:56.373Z,84.90
2023-01-29T08:21:23.904Z,84.80
2023-01-29T08:23:51.553Z,84.50
2023-01-29T08:26:19.194Z,84.60
2023-01-29T08:28:46.515Z,84.70
2023-01-29T08:31:17.284Z,84.80
2023-01-29T08:33:45.939Z,85.10
2023-01-29T08:36:13.750Z,85.00
2023-01-29T08:38:42.601Z,84.50
2023-01-29T08:41:10.196Z,84.30
2023-01-29T08:43:39.048Z,83.40
2023-01-29T08:46:07.890Z,83.30
2023-01-29T08:48:36.638Z,83.70
2023-01-29T08:51:04.614Z,83.00
2023-01-29T08:53:33.251Z,83.20
2023-01-29T08:56:01.051Z,82.70
2023-01-29T08:58:30.006Z,82.80
2023-01-29T09:01:05.926Z,82.70
2023-01-29T09:03:33.967Z,82.50
2023-01-29T09:06:02.743Z,82.50
2023-01-29T09:08:31.108Z,82.80
2023-01-29T09:11:00.657Z,82.80
2023-01-29T09:13:28.726Z,81.80
2023-01-29T09:16:00.325Z,82.10
2023-01-29T09:18:31.316Z,81.90
2023-01-29T09:20:59.347Z,80.60
2023-01-29T09:23:26.808Z,80.80
2023-01-29T09:25:54.538Z,81.60
2023-01-29T09:28:22.600Z,80.80
2023-01-29T09:30:50.517Z,81.20
2023-01-29T09:33:19.927Z,80.70
2023-01-29T09:35:47.452Z,81.30
2023-01-29T09:38:16.043Z,81.60
2023-01-29T09:41:29.418Z,82.10
2023-01-29T09:44:05.201Z,81.10
2023-01-29T09:46:40.600Z,80.60
2023-01-29T09:49:28.954Z,80.60
2023-01-29T09:52:02.765Z,80.60
2023-01-29T09:55:06.049Z,80.60
2023-01-29T09:57:53.556Z,80.50
2023-01-29T10:00:30.305Z,80.00
2023-01-29T10:03:17.718Z,80.10
2023-01-29T10:06:08.976Z,79.80
2023-01-29T10:08:57.280Z,80.30
2023-01-29T10:11:43.044Z,79.10
2023-01-29T10:14:24.168Z,79.80
2023-01-29T10:17:25.217Z,79.00
2023-01-29T10:20:21.157Z,79.00
2023-01-29T10:22:53.960Z,78.70
2023-01-29T10:25:22.965Z,78.40
2023-01-29T10:27:56.983Z,78.50
2023-01-29T10:30:41.051Z,78.00
2023-01-29T10:33:17.445Z,77.40
2023-01-29T10:35:50.436Z,77.90
2023-01-29T10:38:42.558Z,77.10
2023-01-29T10:41:10.175Z,77.30
2023-01-29T10:44:05.126Z,77.10
2023-01-29T10:46:38.544Z,77.10
2023-01-29T10:49:21.880Z,77.40
2023-01-29T10:52:15.926Z,77.50
2023-01-29T10:54:49.640Z,78.00
2023-01-29T10:57:35.132Z,77.90
2023-01-29T11:00:15.198Z,77.30
2023-01-29T11:02:45.490Z,77.90
2023-01-29T11:05:55.132Z,77.40
2023-01-29T11:08:28.377Z,77.00
2023-01-29T11:11:14.416Z,75.30
2023-01-29T11:13:51.169Z,77.10
2023-01-29T11:16:19.440Z,77.50
2023-01-29T11:18:53.093Z,76.00
2023-01-29T11:21:21.566Z,77.00
2023-01-29T11:23:49.403Z,76.60
2023-01-29T11:26:24.793Z,76.00
2023-01-29T11:28:53.601Z,74.80
2023-01-29T11:31:35.654Z,77.30
2023-01-29T11:34:16.795Z,76.70
2023-01-29T11:36:45.210Z,75.80
2023-01-29T11:39:18.591Z,75.80
2023-01-29T11:41:55.394Z,75.70
2023-01-29T11:44:36.041Z,73.10
2023-01-29T11:47:27.279Z,75.10
2023-01-29T11:49:57.785Z,73.90
2023-01-29T11:52:34.262Z,73.70
2023-01-29T11:55:06.951Z,74.00
2023-01-29T11:57:38.993Z,74.00
2023-01-29T12:00:32.084Z,74.20
2023-01-29T12:03:00.033Z,75.00
2023-01-29T12:05:27.762Z,74.60
2023-01-29T12:07:57.945Z,75.70
2023-01-29T12:10:43.784Z,74.70
2023-01-29T12:13:11.249Z,75.30
2023-01-29T12:15:40.317Z,74.90
2023-01-29T12:18:31.319Z,74.30
2023-01-29T12:21:08.185Z,74.10
2023-01-29T12:23:52.210Z,74.30
2023-01-29T12:26:31.671Z,74.50
2023-01-29T12:29:33.427Z,73.80
2023-01-29T12:32:24.296Z,74.00
2023-01-29T12:35:09.364Z,74.10
2023-01-29T12:37:54.234Z,73.70
2023-01-29T12:40:25.043Z,73.80
2023-01-29T12:42:59.296Z,74.00
2023-01-29T12:45:29.216Z,74.60
2023-01-29T12:48:09.091Z,74.30
2023-01-29T12:50:40.982Z,75.20
2023-01-29T12:53:21.023Z,75.40
2023-01-29T12:56:13.248Z,73.90
2023-01-29T12:58:51.014Z,73.40
2023-01-29T13:01:39.422Z,74.80
2023-01-29T13:04:30.625Z,74.40
2023-01-29T13:07:23.726Z,74.30
2023-01-29T13:09:56.844Z,73.80
2023-01-29T13:12:28.032Z,74.90
2023-01-29T13:15:24.595Z,74.60
2023-01-29T13:18:00.302Z,76.20
2023-01-29T13:20:34.109Z,75.80
2023-01-29T13:23:23.262Z,75.80
2023-01-29T13:25:52.527Z,77.00
2023-01-29T13:28:25.624Z,76.60
2023-01-29T13:31:18.194Z,76.60
2023-01-29T13:34:01.522Z,76.00
2023-01-29T13:36:31.217Z,75.80
2023-01-29T13:39:06.345Z,75.00
2023-01-29T13:41:37.601Z,76.40
2023-01-29T13:44:18.152Z,76.90
2023-01-29T13:46:56.252Z,75.80
2023-01-29T13:49:32.553Z,76.40
2023-01-29T13:52:34.857Z,76.40
2023-01-29T13:55:14.396Z,76.80
2023-01-29T13:57:46.114Z,76.50
2023-01-29T14:00:31.007Z,76.30
2023-01-29T14:03:04.656Z,76.20
2023-01-29T14:05:39.995Z,76.10
2023-01-29T14:08:43.967Z,76.60
2023-01-29T14:11:18.200Z,77.40
2023-01-29T14:13:47.716Z,76.50
2023-01-29T14:16:19.256Z,74.60
2023-01-29T14:18:50.311Z,75.50
2023-01-29T14:21:23.845Z,75.60
2023-01-29T14:24:19.940Z,76.50
2023-01-29T14:26:49.249Z,76.40
2023-01-29T14:29:34.308Z,77.00
2023-01-29T14:32:24.963Z,77.40
2023-01-29T14:35:10.630Z,76.80
2023-01-29T14:37:41.399Z,75.50
2023-01-29T14:40:12.364Z,75.50
2023-01-29T14:43:00.283Z,75.50
2023-01-29T14:45:34.180Z,77.30
2023-01-29T14:48:11.059Z,77.50
2023-01-29T14:50:50.332Z,76.00
2023-01-29T14:53:43.195Z,75.40
2023-01-29T14:56:32.202Z,75.50
2023-01-29T14:59:18.350Z,75.00
2023-01-29T15:01:52.566Z,75.80
2023-01-29T15:04:22.242Z,75.10
2023-01-29T15:07:09.866Z,76.40
2023-01-29T15:09:55.683Z,76.70
2023-01-29T15:12:45.362Z,77.10
2023-01-29T15:15:27.345Z,77.80
2023-01-29T15:18:01.703Z,77.80
2023-01-29T15:20:32.655Z,78.40
2023-01-29T15:23:03.318Z,78.00
2023-01-29T15:25:47.050Z,77.00
2023-01-29T15:28:15.687Z,76.40
2023-01-29T15:30:45.207Z,77.30
2023-01-29T15:33:14.964Z,76.30
2023-01-29T15:35:43.330Z,76.90
2023-01-29T15:38:29.607Z,77.10
2023-01-29T15:41:02.500Z,75.70
2023-01-29T15:43:35.541Z,76.90
2023-01-29T15:46:24.117Z,78.00
2023-01-29T15:48:52.765Z,78.00
2023-01-29T15:51:22.773Z,78.20
2023-01-29T15:53:52.467Z,77.00
2023-01-29T15:56:24.679Z,77.90
2023-01-29T15:58:52.792Z,78.20
2023-01-29T16:01:20.617Z,78.40
2023-01-29T16:03:50.655Z,77.70
2023-01-29T16:06:20.477Z,78.30
2023-01-29T16:08:53.524Z,78.70
2023-01-29T16:11:22.493Z,77.20
2023-01-29T16:13:51.576Z,78.30
2023-01-29T16:16:24.047Z,78.20
2023-01-29T16:18:59.894Z,79.40
2023-01-29T16:21:39.686Z,79.00
2023-01-29T16:24:14.122Z,79.60
2023-01-29T16:26:47.591Z,79.60
2023-01-29T16:29:18.500Z,79.50
2023-01-29T16:31:48.691Z,80.00
2023-01-29T16:34:26.635Z,80.20
2023-01-29T16:36:55.745Z,79.30
2023-01-29T16:39:41.686Z,79.60
2023-01-29T16:42:12.956Z,79.90
2023-01-29T16:44:45.533Z,78.60
2023-01-29T16:47:20.429Z,79.10
2023-01-29T16:49:56.167Z,79.90
2023-01-29T16:52:28.282Z,80.10
2023-01-29T16:55:00.654Z,80.10
2023-01-29T16:57:33.322Z,80.50
2023-01-29T17:00:06.212Z,80.10
2023-01-29T17:02:38.168Z,80.40
2023-01-29T17:05:17.473Z,80.10
2023-01-29T17:07:48.143Z,80.30
2023-01-29T17:10:20.459Z,80.00
2023-01-29T17:12:57.777Z,79.90
2023-01-29T17:15:45.092Z,78.90
2023-01-29T17:18:23.970Z,78.20
2023-01-29T17:20:55.274Z,78.50
2023-01-29T17:23:23.712Z,78.80
2023-01-29T17:25:53.543Z,79.60
2023-01-29T17:28:22.115Z,79.40
2023-01-29T17:31:05.032Z,79.20
2023-01-29T17:33:35.600Z,79.10
2023-01-29T17:36:05.881Z,79.60
2023-01-29T17:38:35.715Z,79.90
2023-01-29T17:41:06.105Z,79.70
2023-01-29T17:43:34.497Z,80.00
2023-01-29T17:46:02.408Z,80.30
2023-01-29T17:48:32.286Z,80.90
2023-01-29T17:51:04.480Z,81.00
2023-01-29T17:53:44.810Z,80.40
2023-01-29T17:56:17.775Z,80.60
2023-01-29T17:58:45.476Z,79.90
2023-01-29T18:01:12.924Z,80.10
2023-01-29T18:03:43.084Z,80.80
2023-01-29T18:06:17.453Z,80.60
2023-01-29T18:08:45.193Z,80.40
2023-01-29T18:11:13.265Z,80.40
2023-01-29T18:13:42.117Z,80.50
2023-01-29T18:16:09.860Z,80.50
2023-01-29T18:18:37.810Z,80.60
2023-01-29T18:21:05.782Z,80.50
2023-01-29T18:23:33.485Z,80.70
2023-01-29T18:26:01.587Z,80.80
2023-01-29T18:28:29.821Z,81.10
2023-01-29T18:30:57.356Z,80.90
2023-01-29T18:33:25.881Z,80.80
2023-01-29T18:35:56.247Z,80.90
2023-01-29T18:38:24.647Z,81.30
2023-01-29T18:40:55.490Z,81.30
2023-01-29T18:43:26.202Z,81.50
2023-01-29T18:45:58.998Z,81.30
2023-01-29T18:48:26.637Z,81.20
2023-01-29T18:50:54.676Z,81.30
2023-01-29T18:53:22.532Z,81.60
2023-01-29T18:56:00.632Z,81.30
2023-01-29T18:58:36.157Z,81.60
2023-01-29T19:01:13.768Z,82.00
2023-01-29T19:03:41.809Z,82.00
2023-01-29T19:06:11.546Z,82.00
2023-01-29T19:08:40.264Z,82.30
2023-01-29T19:11:09.190Z,82.00
2023-01-29T19:13:38.669Z,81.90
2023-01-29T19:16:10.087Z,81.70
2023-01-29T19:18:38.389Z,82.00
2023-01-29T19:21:09.170Z,82.60
2023-01-29T19:23:37.391Z,82.50
2023-01-29T19:26:05.420Z,82.70
2023-01-29T19:28:33.434Z,82.60
2023-01-29T19:31:03.565Z,82.80
2023-01-29T19:33:31.700Z,82.40
2023-01-29T19:35:59.526Z,82.50
2023-01-29T19:38:27.430Z,82.80
2023-01-29T19:40:55.356Z,82.50
2023-01-29T19:43:24.583Z,82.70
2023-01-29T19:45:56.893Z,82.70
2023-01-29T19:48:26.637Z,82.60
2023-01-29T19:50:59.857Z,82.60
2023-01-29T19:53:28.900Z,82.40
2023-01-29T19:56:01.938Z,82.40
2023-01-29T19:58:31.486Z,82.40
2023-01-29T20:01:06.780Z,82.90
2023-01-29T20:03:34.509Z,83.70
2023-01-29T20:06:04.355Z,83.20
2023-01-29T20:08:33.738Z,83.00
2023-01-29T20:11:02.237Z,82.60
2023-01-29T20:13:29.975Z,82.00
2023-01-29T20:15:57.794Z,81.80
2023-01-29T20:18:25.508Z,81.90
2023-01-29T20:20:53.566Z,82.00
2023-01-29T20:23:36.690Z,82.10
2023-01-29T20:26:09.875Z,82.00
2023-01-29T20:28:40.371Z,81.80
2023-01-29T20:31:10.649Z,81.70
2023-01-29T20:33:39.615Z,81.50
2023-01-29T20:36:10.053Z,81.30
2023-01-29T20:38:38.474Z,81.30
2023-01-29T20:41:16.962Z,81.70
2023-01-29T20:43:45.708Z,81.80
2023-01-29T20:46:13.589Z,81.80
2023-01-29T20:48:42.238Z,81.80
2023-01-29T20:51:15.197Z,82.20
2023-01-29T20:53:45.810Z,82.00
2023-01-29T20:56:16.066Z,82.00
2023-01-29T20:58:47.010Z,82.20
2023-01-29T21:01:17.355Z,82.30
2023-01-29T21:03:46.524Z,82.20
2023-01-29T21:06:15.902Z,82.20
2023-01-29T21:08:43.548Z,82.50
2023-01-29T21:11:11.780Z,82.60
2023-01-29T21:13:39.666Z,82.80
2023-01-29T21:16:09.789Z,83.00
2023-01-29T21:18:40.321Z,82.90
2023-01-29T21:21:07.966Z,83.20
2023-01-29T21:23:40.332Z,83.20
2023-01-29T21:26:08.361Z,83.30
2023-01-29T21:28:36.037Z,83.50
2023-01-29T21:31:06.362Z,83.90
2023-01-29T21:33:34.960Z,83.90
2023-01-29T21:36:03.156Z,84.10
2023-01-29T21:38:30.777Z,84.10
2023-01-29T21:41:01.675Z,84.20
2023-01-29T21:43:29.500Z,84.20
2023-01-29T21:46:00.485Z,84.80
2023-01-29T21:48:28.887Z,85.40
2023-01-29T21:50:56.519Z,85.40
2023-01-29T21:53:25.211Z,85.40
2023-01-29T21:55:58.413Z,85.30
2023-01-29T21:58:25.829Z,84.90
2023-01-29T22:00:53.895Z,85.00
2023-01-29T22:03:22.051Z,84.50
2023-01-29T22:05:50.163Z,84.60
2023-01-29T22:08:18.679Z,84.30
2023-01-29T22:10:46.589Z,84.10
2023-01-29T22:13:14.405Z,83.70
2023-01-29T22:15:43.398Z,83.90
2023-01-29T22:18:11.397Z,83.90
2023-01-29T22:20:40.200Z,83.70
2023-01-29T22:23:08.485Z,83.70
2023-01-29T22:25:36.211Z,83.60
2023-01-29T22:28:04.084Z,83.40
2023-01-29T22:30:32.445Z,83.50
2023-01-29T22:33:00.077Z,83.60
2023-01-29T22:35:28.111Z,83.80
2023-01-29T22:37:55.748Z,83.90
2023-01-29T22:40:24.434Z,84.10
2023-01-29T22:42:52.379Z,84.00
2023-01-29T22:45:20.149Z,83.80
2023-01-29T22:47:47.489Z,83.60
2023-01-29T22:50:15.978Z,83.50
2023-01-29T22:52:53.726Z,83.60
2023-01-29T22:55:22.427Z,83.80
2023-01-29T22:57:50.559Z,83.60
2023-01-29T23:00:21.584Z,83.80
2023-01-29T23:02:50.260Z,83.80
2023-01-29T23:05:18.610Z,83.90
2023-01-29T23:07:46.809Z,84.10
2023-01-29T23:10:15.507Z,84.30
2023-01-29T23:12:44.493Z,84.80
2023-01-29T23:15:12.227Z,84.60
2023-01-29T23:17:39.927Z,84.60
2023-01-29T23:20:08.297Z,84.50
2023-01-29T23:22:37.592Z,84.60
2023-01-29T23:25:08.067Z,84.80
2023-01-29T23:27:36.796Z,84.90
2023-01-29T23:30:12.786Z,84.70
2023-01-29T23:32:42.559Z,85.20
2023-01-29T23:35:11.513Z,85.50
2023-01-29T23:37:38.898Z,85.30
2023-01-29T23:40:07.398Z,85.20
2023-01-29T23:42:35.192Z,85.40
2023-01-29T23:45:02.623Z,85.60
2023-01-29T23:47:30.113Z,85.50
2023-01-29T23:49:57.783Z,85.70
2023-01-29T23:52:25.589Z,85.60
2023-01-29T23:54:54.243Z,85.90
2023-01-29T23:57:24.879Z,85.90
2023-01-29T23:59:52.632Z,86.10
